Huvudsida
METAR-TAF:

METAR-TAF

Flygplatser :

Vientiane, Laos

Wattay International Airport

latitud: 17-57N, longitud: 102-34E, höjd: 171 m

Aktuellt väderrapport

Denna rapport gjordes för 30 minuter sedan, klockan 00:30 UTC
Vind 2 kt från nordväst
Temperatur 17°C
Fuktighet 94%
Tryck 1013 hPa
Sikt: 6000 m
Få moln på en höjd av 20000 ft

METAR: VLVT 200030Z 32002KT 6000 FEW200 17/16 Q1013 NOSIG

Tid: 08:00 (01:00 UTC)

Väderprognos

Denna rapport gjordes för 2 timmar och 0 minuter sedan, klockan 23:00 UTC
Prognos gäller från 20 kl. 00 UTC till 20 kl. 24 UTC
Vind 4 kt från väst/nordväst
Sikt: 8000 m
Få moln på en höjd av 2000 ft
Få moln på en höjd av 20000 ft
Temporärt
från 20 kl. 00 UTC till 20 kl. 03 UTC
Sikt: 4000 m
fuktdis

TAF: VLVT 192300Z 2000/2024 30004KT 8000 FEW020 FEW200 TEMPO 2000/2003 4000 BR NSC

Aktuella väderrapporter och prognoser från 4000 flygplatser (METAR- och TAF-rapporter).

De tillgängliga stationerna syns som gula och röda prickar på kartan.

För musen över prickarna för att se namnen på stationerna.

Klicka sedan för att få väderrapporter och prognoser.

För att ändra kartan: Klicka på de gröna knapparna med ett svart kors på för att zooma in; den gröna knappen med ett streck på för att zooma ut; eller på de gröna pilarna för angränsande kartor.


METAR-TAF: